createdAt,value
2022-09-12T00:01:11.416Z,99068.41
2022-09-12T00:03:38.629Z,99066.66
2022-09-12T00:06:24.628Z,99067.59
2022-09-12T00:08:51.617Z,99064.91
2022-09-12T00:11:18.215Z,99057.84
2022-09-12T00:13:44.588Z,99062.28
2022-09-12T00:16:21.649Z,99064.94
2022-09-12T00:18:48.529Z,99060.47
2022-09-12T00:21:15.681Z,99064.03
2022-09-12T00:23:42.154Z,99060.53
2022-09-12T00:26:08.709Z,99057.88
2022-09-12T00:28:36.116Z,99058.78
2022-09-12T00:31:10.163Z,99060.59
2022-09-12T00:33:36.729Z,99061.47
2022-09-12T00:36:22.313Z,99053.56
2022-09-12T00:38:49.769Z,99054.38
2022-09-12T00:41:26.455Z,99052.63
2022-09-12T00:43:54.083Z,99049.03
2022-09-12T00:46:23.248Z,99050.78
2022-09-12T00:48:52.163Z,99046.34
2022-09-12T00:51:19.085Z,99039.28
2022-09-12T00:53:46.520Z,99044.59
2022-09-12T00:56:15.667Z,99046.34
2022-09-12T00:58:50.521Z,99043.69
2022-09-12T01:01:17.279Z,99044.59
2022-09-12T01:03:44.567Z,99036.63
2022-09-12T01:06:16.891Z,99038.41
2022-09-12T01:08:43.732Z,99029.56
2022-09-12T01:11:11.474Z,99034.84
2022-09-12T01:13:37.963Z,99027.81
2022-09-12T01:16:05.962Z,99028.75
2022-09-12T01:18:41.963Z,99026.06
2022-09-12T01:21:18.245Z,99024.31
2022-09-12T01:24:07.958Z,99023.44
2022-09-12T01:26:43.349Z,99028.69
2022-09-12T01:29:15.866Z,99023.44
2022-09-12T01:31:51.175Z,99027.88
2022-09-12T01:34:20.589Z,99034.09
2022-09-12T01:36:52.903Z,99030.56
2022-09-12T01:39:34.563Z,99027.88
2022-09-12T01:42:16.288Z,99017.28
2022-09-12T01:44:48.707Z,99014.75
2022-09-12T01:47:24.135Z,99006.78
2022-09-12T01:49:57.363Z,99005.91
2022-09-12T01:52:36.076Z,99005.91
2022-09-12T01:55:09.685Z,98998.78
2022-09-12T01:57:50.177Z,99002.34
2022-09-12T02:00:16.627Z,98996.19
2022-09-12T02:02:48.495Z,98996.13
2022-09-12T02:05:18.618Z,98997.06
2022-09-12T02:07:47.459Z,98989.97
2022-09-12T02:10:40.099Z,98991.66
2022-09-12T02:13:15.094Z,98990.88
2022-09-12T02:15:45.597Z,98989.19
2022-09-12T02:18:14.494Z,98988.31
2022-09-12T02:20:48.466Z,98994.47
2022-09-12T02:23:27.474Z,98982.13
2022-09-12T02:25:56.743Z,98988.28
2022-09-12T02:28:35.197Z,98990.03
2022-09-12T02:31:22.051Z,98997.13
2022-09-12T02:33:51.437Z,98991.81
2022-09-12T02:36:24.064Z,98990.94
2022-09-12T02:38:50.769Z,98988.28
2022-09-12T02:41:19.399Z,98988.28
2022-09-12T02:43:46.448Z,98990.09
2022-09-12T02:46:22.114Z,98986.59
2022-09-12T02:48:48.483Z,98979.56
2022-09-12T02:51:15.185Z,98976.00
2022-09-12T02:53:41.751Z,98987.53
2022-09-12T02:56:11.042Z,98978.72
2022-09-12T02:58:37.410Z,98984.88
2022-09-12T03:01:22.951Z,98981.38
2022-09-12T03:03:59.288Z,98977.91
2022-09-12T03:06:37.950Z,98983.22
2022-09-12T03:09:21.153Z,98971.72
2022-09-12T03:11:50.845Z,98970.72
2022-09-12T03:14:23.242Z,98976.94
2022-09-12T03:16:52.779Z,98968.97
2022-09-12T03:19:42.277Z,98970.78
2022-09-12T03:22:27.374Z,98971.66
2022-09-12T03:24:58.274Z,98967.25
2022-09-12T03:27:30.131Z,98968.16
2022-09-12T03:29:56.678Z,98961.03
2022-09-12T03:32:41.765Z,98965.47
2022-09-12T03:35:08.334Z,98967.22
2022-09-12T03:37:34.658Z,98967.28
2022-09-12T03:40:01.144Z,98973.44
2022-09-12T03:42:27.477Z,98974.38
2022-09-12T03:44:53.876Z,98972.59
2022-09-12T03:47:20.390Z,98970.78
2022-09-12T03:49:46.793Z,98972.47
2022-09-12T03:52:13.188Z,98965.38
2022-09-12T03:54:39.800Z,98969.78
2022-09-12T03:57:06.174Z,98970.69
2022-09-12T03:59:32.875Z,98966.28
2022-09-12T04:01:59.540Z,98965.56
2022-09-12T04:04:26.105Z,98974.41
2022-09-12T04:06:52.440Z,98969.06
2022-09-12T04:09:18.898Z,98972.56
2022-09-12T04:11:45.241Z,98968.97
2022-09-12T04:14:11.624Z,98963.63
2022-09-12T04:16:38.111Z,98969.78
2022-09-12T04:19:04.837Z,98970.69
2022-09-12T04:21:31.346Z,98973.34
2022-09-12T04:23:57.710Z,98973.38
2022-09-12T04:26:24.142Z,98965.41
2022-09-12T04:28:53.666Z,98970.72
2022-09-12T04:31:22.638Z,98971.56
2022-09-12T04:33:56.365Z,98975.16
2022-09-12T04:36:23.130Z,98976.03
2022-09-12T04:38:49.930Z,98982.22
2022-09-12T04:41:17.684Z,98976.88
2022-09-12T04:43:46.423Z,98988.44
2022-09-12T04:46:13.592Z,98987.59
2022-09-12T04:48:40.002Z,98987.59
2022-09-12T04:51:14.074Z,98984.03
2022-09-12T04:53:40.764Z,98984.91
2022-09-12T04:56:09.522Z,98982.22
2022-09-12T04:58:36.207Z,98981.41
2022-09-12T05:01:10.011Z,98983.16
2022-09-12T05:03:38.973Z,98984.03
2022-09-12T05:06:07.076Z,98981.38
2022-09-12T05:08:35.319Z,98986.72
2022-09-12T05:11:03.673Z,98984.13
2022-09-12T05:13:30.051Z,98979.78
2022-09-12T05:15:57.311Z,98977.03
2022-09-12T05:18:23.869Z,98984.03
2022-09-12T05:20:50.279Z,98976.03
2022-09-12T05:23:16.641Z,98981.41
2022-09-12T05:25:50.516Z,98981.41
2022-09-12T05:28:17.053Z,98984.88
2022-09-12T05:30:43.368Z,98984.88
2022-09-12T05:33:09.877Z,98993.69
2022-09-12T05:35:38.005Z,98987.41
2022-09-12T05:38:05.371Z,98991.81
2022-09-12T05:40:31.876Z,98989.09
2022-09-12T05:42:58.510Z,98987.34
2022-09-12T05:45:25.103Z,98984.69
2022-09-12T05:47:51.475Z,98989.97
2022-09-12T05:50:17.833Z,98989.06
2022-09-12T05:52:44.152Z,98994.34
2022-09-12T05:55:11.507Z,98990.75
2022-09-12T05:57:37.894Z,98989.75
2022-09-12T06:00:05.480Z,98990.63
2022-09-12T06:02:31.861Z,99006.59
2022-09-12T06:04:58.255Z,98996.81
2022-09-12T06:07:24.701Z,99002.03
2022-09-12T06:09:51.076Z,99001.06
2022-09-12T06:12:17.478Z,98999.22
2022-09-12T06:14:43.842Z,99002.78
2022-09-12T06:17:10.235Z,99001.81
2022-09-12T06:19:36.807Z,98999.06
2022-09-12T06:22:03.199Z,99000.81
2022-09-12T06:24:29.568Z,99006.03
2022-09-12T06:26:55.891Z,99005.13
2022-09-12T06:29:22.338Z,99003.25
2022-09-12T06:31:48.736Z,98996.09
2022-09-12T06:34:15.759Z,98988.94
2022-09-12T06:36:46.086Z,98990.63
2022-09-12T06:39:14.005Z,98987.03
2022-09-12T06:41:44.013Z,98993.13
2022-09-12T06:44:15.947Z,98992.16
2022-09-12T06:46:42.532Z,98992.16
2022-09-12T06:49:08.922Z,98989.47
2022-09-12T06:51:36.307Z,98979.66
2022-09-12T06:54:03.049Z,98982.31
2022-09-12T06:56:29.472Z,98990.38
2022-09-12T06:58:56.975Z,98978.84
2022-09-12T07:01:24.979Z,98981.41
2022-09-12T07:03:53.421Z,98984.19
2022-09-12T07:06:20.906Z,98976.16
2022-09-12T07:08:47.517Z,98980.56
2022-09-12T07:11:15.511Z,98984.06
2022-09-12T07:13:42.814Z,98988.44
2022-09-12T07:16:10.525Z,98989.19
2022-09-12T07:18:40.350Z,98985.44
2022-09-12T07:21:11.526Z,98987.13
2022-09-12T07:23:38.539Z,98986.13
2022-09-12T07:26:04.959Z,98989.53
2022-09-12T07:28:32.174Z,98985.88
2022-09-12T07:30:59.211Z,98995.56
2022-09-12T07:33:28.588Z,98991.81
2022-09-12T07:35:54.982Z,98989.84
2022-09-12T07:38:21.900Z,98993.28
2022-09-12T07:40:48.328Z,98986.94
2022-09-12T07:43:15.122Z,98986.72
2022-09-12T07:45:42.334Z,98984.66
2022-09-12T07:48:09.056Z,98988.88
2022-09-12T07:50:36.710Z,98992.06
2022-09-12T07:53:06.405Z,98982.00
2022-09-12T07:55:33.076Z,98987.03
2022-09-12T07:57:59.469Z,98991.09
2022-09-12T08:00:26.696Z,98991.69
2022-09-12T08:02:54.131Z,98998.63
2022-09-12T08:05:20.814Z,98998.28
2022-09-12T08:07:47.402Z,98999.72
2022-09-12T08:10:13.774Z,98996.81
2022-09-12T16:17:42.346Z,98691.94
2022-09-12T16:20:09.905Z,98692.16
2022-09-12T16:22:37.238Z,98682.53
2022-09-12T16:25:04.407Z,98687.19
2022-09-12T16:27:31.053Z,98687.53
2022-09-12T16:29:57.713Z,98686.81
2022-09-12T16:32:24.305Z,98679.16
2022-09-12T16:34:50.930Z,98676.75
2022-09-12T16:37:18.093Z,98679.84
2022-09-12T16:39:44.890Z,98671.19
2022-09-12T16:42:11.367Z,98669.50
2022-09-12T16:44:37.873Z,98671.50
2022-09-12T16:47:04.412Z,98664.44
2022-09-12T16:49:30.995Z,98670.69
2022-09-12T16:51:57.426Z,98660.94
2022-09-12T16:54:23.991Z,98668.28
2022-09-12T16:56:50.580Z,98663.25
2022-09-12T16:59:17.272Z,98654.56
2022-09-12T17:01:45.160Z,98659.19
2022-09-12T17:04:11.922Z,98653.06
2022-09-12T17:06:38.884Z,98658.56
2022-09-12T17:09:05.573Z,98654.34
2022-09-12T17:11:38.104Z,98649.16
2022-09-12T17:14:07.848Z,98649.19
2022-09-12T17:16:37.204Z,98650.22
2022-09-12T17:19:05.357Z,98648.75
2022-09-12T17:21:32.394Z,98647.16
2022-09-12T17:23:59.279Z,98646.50
2022-09-12T17:26:26.716Z,98649.34
2022-09-12T17:28:53.414Z,98647.78
2022-09-12T17:31:20.244Z,98649.75
2022-09-12T17:33:47.130Z,98646.34
2022-09-12T17:36:16.406Z,98639.25
2022-09-12T17:38:44.978Z,98640.47
2022-09-12T17:41:16.076Z,98645.88
2022-09-12T17:43:42.874Z,98646.00
2022-09-12T17:46:09.484Z,98642.59
2022-09-12T17:48:36.068Z,98641.84
2022-09-12T17:51:10.004Z,98637.47
2022-09-12T17:53:36.600Z,98641.13
2022-09-12T17:56:07.261Z,98642.88
2022-09-12T17:58:34.229Z,98645.72
2022-09-12T18:01:25.011Z,98644.16
2022-09-12T18:04:00.555Z,98635.25
2022-09-12T18:06:28.791Z,98639.78
2022-09-12T18:08:55.500Z,98644.16
2022-09-12T18:11:22.019Z,98640.66
2022-09-12T18:13:48.553Z,98636.06
2022-09-12T18:16:15.313Z,98640.59
2022-09-12T18:18:42.018Z,98629.91
2022-09-12T18:21:11.269Z,98629.03
2022-09-12T18:23:38.138Z,98636.22
2022-09-12T18:26:10.709Z,98639.97
2022-09-12T18:28:41.408Z,98636.53
2022-09-12T18:31:14.200Z,98625.81
2022-09-12T18:33:41.252Z,98623.19
2022-09-12T18:36:10.193Z,98623.25
2022-09-12T18:38:37.323Z,98617.91
2022-09-12T18:41:09.246Z,98620.63
2022-09-12T18:43:35.923Z,98614.41
2022-09-12T18:46:07.355Z,98619.00
2022-09-12T18:48:34.686Z,98612.94
2022-09-12T18:51:06.122Z,98618.41
2022-09-12T18:53:33.657Z,98614.88
2022-09-12T18:56:06.185Z,98623.94
2022-09-12T18:58:32.670Z,98619.44
2022-09-12T19:00:59.326Z,98618.69
2022-09-12T19:03:25.945Z,98624.31
2022-09-12T19:05:52.509Z,98622.66
2022-09-12T19:08:19.068Z,98619.06
2022-09-12T19:10:45.882Z,98624.47
2022-09-12T19:13:12.344Z,98618.34
2022-09-12T19:15:41.687Z,98626.53
2022-09-12T19:18:09.474Z,98617.75
2022-09-12T19:20:37.421Z,98621.34
2022-09-12T19:23:04.053Z,98616.81
2022-09-12T19:25:30.658Z,98619.59
2022-09-12T19:27:57.153Z,98612.50
2022-09-12T19:30:23.695Z,98614.34
2022-09-12T19:32:50.143Z,98615.28
2022-09-12T19:35:16.644Z,98617.94
2022-09-12T19:37:43.104Z,98611.78
2022-09-12T19:40:09.960Z,98613.59
2022-09-12T19:42:36.497Z,98608.38
2022-09-12T19:45:03.038Z,98606.72
2022-09-12T19:47:29.542Z,98596.09
2022-09-12T19:49:56.054Z,98596.97
2022-09-12T19:52:22.665Z,98597.03
2022-09-12T19:54:49.124Z,98595.22
2022-09-12T19:57:15.724Z,98591.50
2022-09-12T19:59:42.705Z,98590.69
2022-09-12T20:02:09.282Z,98588.03
2022-09-12T20:04:36.781Z,98594.34
2022-09-12T20:07:03.283Z,98589.00
2022-09-12T20:09:29.782Z,98579.34
2022-09-12T20:11:56.276Z,98569.69
2022-09-12T20:14:22.807Z,98561.63
2022-09-12T20:16:49.466Z,98567.03
2022-09-12T20:19:15.925Z,98559.22
2022-09-12T20:21:42.478Z,98552.03
2022-09-12T20:24:14.033Z,98542.47
2022-09-12T20:26:40.938Z,98545.44
2022-09-12T20:29:08.378Z,98549.91
2022-09-12T20:31:36.953Z,98551.38
2022-09-12T20:34:03.936Z,98546.31
2022-09-12T20:36:30.544Z,98549.78
2022-09-12T20:39:00.127Z,98542.63
2022-09-12T20:41:29.234Z,98541.59
2022-09-12T20:43:57.086Z,98538.69
2022-09-12T20:46:25.469Z,98537.47
2022-09-12T20:48:52.758Z,98539.50
2022-09-12T20:51:26.457Z,98528.59
2022-09-12T20:54:00.662Z,98522.56
2022-09-12T20:56:28.410Z,98527.22
2022-09-12T20:58:55.952Z,98523.63
2022-09-12T21:01:23.389Z,98528.00
2022-09-12T21:03:50.247Z,98523.38
2022-09-12T21:06:17.168Z,98521.78
2022-09-12T21:08:44.615Z,98518.44
2022-09-12T21:11:11.280Z,98512.34
2022-09-12T21:13:38.360Z,98509.13
2022-09-12T21:16:16.731Z,98509.47
2022-09-12T21:18:44.102Z,98494.56
2022-09-12T21:21:13.421Z,98501.81
2022-09-12T21:23:40.879Z,98493.16
2022-09-12T21:26:08.203Z,98483.59
2022-09-12T21:28:34.756Z,98493.94
2022-09-12T21:31:01.441Z,98490.28
2022-09-12T21:33:28.303Z,98488.03
2022-09-12T21:35:55.432Z,98486.16
2022-09-12T21:38:21.987Z,98486.22
2022-09-12T21:40:48.542Z,98486.25
2022-09-12T21:43:15.245Z,98480.22
2022-09-12T21:45:42.094Z,98482.88
2022-09-12T21:48:08.623Z,98475.56
2022-09-12T21:50:35.142Z,98471.97
2022-09-12T21:53:01.777Z,98477.19
2022-09-12T21:55:28.221Z,98472.50
2022-09-12T21:57:56.229Z,98462.44
2022-09-12T22:00:22.903Z,98464.06
2022-09-12T22:02:49.586Z,98454.19
2022-09-12T22:05:17.142Z,98458.72
2022-09-12T22:07:43.907Z,98461.38
2022-09-12T22:10:10.812Z,98451.50
2022-09-12T22:12:37.273Z,98447.91
2022-09-12T22:15:22.995Z,98439.78
2022-09-12T22:17:51.167Z,98441.41
2022-09-12T22:20:17.749Z,98443.91
2022-09-12T22:23:02.753Z,98438.31
2022-09-12T22:25:29.372Z,98429.50
2022-09-12T22:27:55.842Z,98421.28
2022-09-12T22:30:22.607Z,98423.88
2022-09-12T22:32:51.082Z,98416.84
2022-09-12T22:35:18.484Z,98415.25
2022-09-12T22:37:46.983Z,98426.00
2022-09-12T22:40:14.268Z,98421.34
2022-09-12T22:42:40.822Z,98421.41
2022-09-12T22:45:08.096Z,98422.69
2022-09-12T22:47:34.599Z,98415.03
2022-09-12T22:50:01.185Z,98414.41
2022-09-12T22:52:27.801Z,98405.81
2022-09-12T22:54:54.265Z,98405.97
2022-09-12T22:57:20.783Z,98408.75
2022-09-12T22:59:47.243Z,98411.63
2022-09-12T23:02:13.755Z,98403.16
2022-09-12T23:04:40.207Z,98401.56
2022-09-12T23:07:06.714Z,98411.50
2022-09-12T23:09:35.410Z,98400.03
2022-09-12T23:12:02.663Z,98397.66
2022-09-12T23:14:31.375Z,98396.84
2022-09-12T23:16:58.014Z,98382.78
2022-09-12T23:19:24.479Z,98391.72
2022-09-12T23:21:51.107Z,98381.75
2022-09-12T23:24:17.869Z,98383.34
2022-09-12T23:26:44.474Z,98374.78
2022-09-12T23:29:11.407Z,98367.22
2022-09-12T23:31:38.163Z,98367.50
2022-09-12T23:34:05.955Z,98364.38
2022-09-12T23:36:33.530Z,98361.03
2022-09-12T23:39:00.092Z,98363.22
2022-09-12T23:41:26.706Z,98365.19
2022-09-12T23:43:53.695Z,98377.00
2022-09-12T23:46:21.059Z,98367.94
2022-09-12T23:48:47.714Z,98361.34
2022-09-12T23:51:14.983Z,98357.22
2022-09-12T23:53:42.137Z,98348.03
2022-09-12T23:56:09.085Z,98355.84
2022-09-12T23:58:35.847Z,98343.50
